createdAt,value
2023-01-13T00:02:15.850Z,5.30
2023-01-13T00:04:47.765Z,5.40
2023-01-13T00:07:17.760Z,5.40
2023-01-13T00:09:47.702Z,5.50
2023-01-13T00:12:17.846Z,5.40
2023-01-13T00:14:47.452Z,5.40
2023-01-13T00:17:16.472Z,5.40
2023-01-13T00:19:47.618Z,5.40
2023-01-13T00:22:17.303Z,5.30
2023-01-13T00:24:46.595Z,5.30
2023-01-13T00:27:16.643Z,5.30
2023-01-13T00:29:46.242Z,5.30
2023-01-13T00:32:16.138Z,5.30
2023-01-13T00:34:45.167Z,5.30
2023-01-13T00:37:15.992Z,5.30
2023-01-13T00:39:49.128Z,5.40
2023-01-13T00:42:37.152Z,5.40
2023-01-13T00:45:10.152Z,5.30
2023-01-13T00:47:43.120Z,5.40
2023-01-13T00:50:13.051Z,5.40
2023-01-13T00:52:43.016Z,5.50
2023-01-13T00:55:12.307Z,5.50
2023-01-13T00:57:41.552Z,5.50
2023-01-13T01:00:12.576Z,5.50
2023-01-13T01:02:42.575Z,5.40
2023-01-13T01:05:12.858Z,5.40
2023-01-13T01:07:44.347Z,5.50
2023-01-13T01:10:13.483Z,5.40
2023-01-13T01:12:43.343Z,5.40
2023-01-13T01:15:13.433Z,5.50
2023-01-13T01:17:43.626Z,5.40
2023-01-13T01:20:13.313Z,5.50
2023-01-13T01:22:42.574Z,5.50
2023-01-13T01:25:12.212Z,5.50
2023-01-13T01:27:42.033Z,5.60
2023-01-13T01:30:12.102Z,5.50
2023-01-13T01:32:41.303Z,5.50
2023-01-13T01:38:22.080Z,5.40
2023-01-13T01:41:50.160Z,5.40
2023-01-13T01:45:14.120Z,5.50
2023-01-13T01:51:13.120Z,5.40
2023-01-13T01:54:04.195Z,5.40
2023-01-13T01:59:51.514Z,5.30
2023-01-13T02:03:02.450Z,5.30
2023-01-13T02:05:48.489Z,5.20
2023-01-13T02:08:20.418Z,5.20
2023-01-13T02:13:43.275Z,5.10
2023-01-13T02:16:48.103Z,5.10
2023-01-13T02:19:57.397Z,5.00
2023-01-13T02:23:36.439Z,5.10
2023-01-13T02:30:40.091Z,5.00
2023-01-13T02:33:19.193Z,5.00
2023-01-13T02:36:30.776Z,5.00
2023-01-13T02:39:30.796Z,5.00
2023-01-13T02:43:08.765Z,4.90
2023-01-13T02:46:16.665Z,4.90
2023-01-13T02:49:07.881Z,4.90
2023-01-13T02:51:43.483Z,4.90
2023-01-13T02:55:07.125Z,4.90
2023-01-13T02:58:09.800Z,5.00
2023-01-13T03:03:35.303Z,5.00
2023-01-13T03:06:58.492Z,5.00
2023-01-13T03:14:10.780Z,5.00
2023-01-13T03:17:22.438Z,5.00
2023-01-13T03:20:30.764Z,5.00
2023-01-13T03:23:36.260Z,5.00
2023-01-13T03:26:41.214Z,4.90
2023-01-13T03:30:22.995Z,5.00
2023-01-13T03:33:00.936Z,4.90
2023-01-13T03:38:58.885Z,4.80
2023-01-13T03:45:23.845Z,4.80
2023-01-13T03:47:58.130Z,4.70
2023-01-13T03:51:03.823Z,4.70
2023-01-13T03:53:39.925Z,4.70
2023-01-13T03:56:26.815Z,4.70
2023-01-13T03:58:58.171Z,4.60
2023-01-13T04:01:35.377Z,4.60
2023-01-13T04:04:16.891Z,4.70
2023-01-13T04:07:08.529Z,4.70
2023-01-13T04:10:00.213Z,4.70
2023-01-13T04:12:52.172Z,4.70
2023-01-13T04:15:27.427Z,4.70
2023-01-13T04:18:02.135Z,4.70
2023-01-13T04:20:30.216Z,4.80
2023-01-13T04:22:57.743Z,4.80
2023-01-13T04:25:25.674Z,4.80
2023-01-13T04:27:53.296Z,4.90
2023-01-13T04:30:21.141Z,4.80
2023-01-13T04:32:48.826Z,4.80
2023-01-13T04:35:16.795Z,4.80
2023-01-13T04:37:44.438Z,4.80
2023-01-13T04:40:12.508Z,4.80
2023-01-13T04:42:52.580Z,4.70
2023-01-13T04:45:23.585Z,4.70
2023-01-13T04:47:51.870Z,4.70
2023-01-13T04:50:20.033Z,4.70
2023-01-13T04:52:48.357Z,4.70
2023-01-13T04:55:17.327Z,4.70
2023-01-13T04:57:45.463Z,4.80
2023-01-13T05:00:19.195Z,4.80
2023-01-13T05:02:49.446Z,4.80
2023-01-13T05:05:17.956Z,4.90
2023-01-13T05:07:45.833Z,4.90
2023-01-13T05:10:13.732Z,4.90
2023-01-13T05:13:01.128Z,5.00
2023-01-13T05:15:47.563Z,5.00
2023-01-13T05:18:16.678Z,5.00
2023-01-13T05:20:44.278Z,4.90
2023-01-13T05:23:31.656Z,4.90
2023-01-13T05:25:59.440Z,4.90
2023-01-13T05:28:31.184Z,4.80
2023-01-13T05:31:00.492Z,4.80
2023-01-13T05:33:28.229Z,4.80
2023-01-13T05:35:56.315Z,4.80
2023-01-13T05:38:24.081Z,4.80
2023-01-13T05:41:10.000Z,4.80
2023-01-13T05:43:37.849Z,4.80
2023-01-13T05:46:09.853Z,4.80
2023-01-13T05:48:39.760Z,4.80
2023-01-13T05:51:10.017Z,4.90
2023-01-13T05:53:37.977Z,4.80
2023-01-13T05:56:06.929Z,4.70
2023-01-13T05:58:35.230Z,4.70
2023-01-13T06:01:05.939Z,4.70
2023-01-13T06:03:33.935Z,4.80
2023-01-13T06:06:09.988Z,4.80
2023-01-13T06:08:40.930Z,4.80
2023-01-13T06:11:08.551Z,4.70
2023-01-13T06:13:36.190Z,4.60
2023-01-13T06:16:06.558Z,4.50
2023-01-13T06:18:34.364Z,4.60
2023-01-13T06:21:02.009Z,4.60
2023-01-13T06:23:35.384Z,4.70
2023-01-13T06:26:16.186Z,4.70
2023-01-13T06:28:43.849Z,4.80
2023-01-13T06:31:11.998Z,4.80
2023-01-13T06:33:43.621Z,4.80
2023-01-13T06:36:16.911Z,4.80
2023-01-13T06:38:47.832Z,4.70
2023-01-13T06:41:16.093Z,4.80
2023-01-13T06:43:43.775Z,4.80
2023-01-13T06:46:13.830Z,4.80
2023-01-13T06:48:44.022Z,4.80
2023-01-13T06:51:14.937Z,4.80
2023-01-13T06:53:47.619Z,4.80
2023-01-13T06:56:21.158Z,4.80
2023-01-13T06:58:50.759Z,4.80
2023-01-13T07:01:22.869Z,4.80
2023-01-13T07:03:53.565Z,4.80
2023-01-13T07:06:23.602Z,4.90
2023-01-13T07:08:53.556Z,4.80
2023-01-13T07:11:23.785Z,4.70
2023-01-13T07:14:15.409Z,4.80
2023-01-13T07:17:05.657Z,4.70
2023-01-13T07:19:35.955Z,4.80
2023-01-13T07:22:05.873Z,4.80
2023-01-13T07:24:34.539Z,5.10
2023-01-13T07:27:04.777Z,5.10
2023-01-13T07:29:35.001Z,5.10
2023-01-13T07:32:17.429Z,5.00
2023-01-13T07:34:50.488Z,5.00
2023-01-13T07:37:20.090Z,5.10
2023-01-13T07:39:51.219Z,5.10
2023-01-13T07:42:39.206Z,5.10
2023-01-13T07:45:32.244Z,5.20
2023-01-13T07:48:01.175Z,5.30
2023-01-13T07:50:33.830Z,5.40
2023-01-13T07:53:51.939Z,5.40
2023-01-13T07:56:23.775Z,5.40
2023-01-13T07:58:54.591Z,5.40
2023-01-13T08:01:28.932Z,5.50
2023-01-13T08:04:08.917Z,5.50
2023-01-13T08:06:42.595Z,5.50
2023-01-13T08:09:12.431Z,5.50
2023-01-13T08:11:42.580Z,5.60
2023-01-13T08:14:13.338Z,5.60
2023-01-13T08:16:43.328Z,5.70
2023-01-13T08:19:13.264Z,5.80
2023-01-13T08:21:43.505Z,5.90
2023-01-13T08:24:13.131Z,6.00
2023-01-13T08:26:43.385Z,6.10
2023-01-13T08:29:15.045Z,6.10
2023-01-13T08:31:48.443Z,6.20
2023-01-13T08:34:18.055Z,6.30
2023-01-13T08:36:51.885Z,6.40
2023-01-13T08:39:21.213Z,6.40
2023-01-13T08:41:56.058Z,6.50
2023-01-13T08:44:28.120Z,6.60
2023-01-13T08:46:57.735Z,6.60
2023-01-13T08:49:27.685Z,6.60
2023-01-13T08:51:57.861Z,6.60
2023-01-13T08:54:30.779Z,6.70
2023-01-13T08:57:06.095Z,6.80
2023-01-13T09:00:07.467Z,6.90
2023-01-13T09:02:39.354Z,7.10
2023-01-13T09:05:11.265Z,7.10
2023-01-13T09:11:00.199Z,7.30
2023-01-13T09:13:33.231Z,7.40
2023-01-13T09:16:05.508Z,7.50
2023-01-13T09:18:41.923Z,7.50
2023-01-13T09:21:13.571Z,7.60
2023-01-13T09:24:33.248Z,7.80
2023-01-13T09:27:02.761Z,8.10
2023-01-13T09:29:32.918Z,8.30
2023-01-13T09:32:03.324Z,8.30
2023-01-13T09:35:00.596Z,8.20
2023-01-13T09:37:42.768Z,8.30
2023-01-13T09:40:23.685Z,8.20
2023-01-13T09:43:17.928Z,8.30
2023-01-13T09:46:37.666Z,8.30
2023-01-13T09:49:10.890Z,8.40
2023-01-13T09:51:49.730Z,8.50
2023-01-13T09:54:44.507Z,8.40
2023-01-13T09:57:18.377Z,8.40
2023-01-13T09:59:54.384Z,8.40
2023-01-13T10:02:40.386Z,8.40
2023-01-13T10:05:37.144Z,8.30
2023-01-13T10:08:15.172Z,8.30
2023-01-13T10:10:56.118Z,8.30
2023-01-13T10:13:41.094Z,8.20
2023-01-13T10:16:30.092Z,8.30
2023-01-13T10:19:11.965Z,8.30
2023-01-13T10:21:53.325Z,8.40
2023-01-13T10:24:51.163Z,8.50
2023-01-13T10:27:41.070Z,8.60
2023-01-13T10:30:32.777Z,8.70
2023-01-13T10:33:13.795Z,8.70
2023-01-13T10:36:05.656Z,8.80
2023-01-13T10:38:54.622Z,8.70
2023-01-13T10:44:27.751Z,8.70
2023-01-13T10:47:09.376Z,8.60
2023-01-13T10:49:40.063Z,8.60
2023-01-13T10:53:01.415Z,8.50
2023-01-13T10:55:38.199Z,8.50
2023-01-13T10:58:16.216Z,8.50
2023-01-13T11:00:46.198Z,8.40
2023-01-13T11:03:23.474Z,8.40
2023-01-13T11:05:58.312Z,8.40
2023-01-13T11:08:30.381Z,8.40
2023-01-13T11:11:01.576Z,8.40
2023-01-13T11:14:01.225Z,8.50
2023-01-13T11:16:52.959Z,8.50
2023-01-13T11:23:01.033Z,8.70
2023-01-13T11:25:51.720Z,8.70
2023-01-13T11:28:43.759Z,8.70
2023-01-13T11:31:34.620Z,8.60
2023-01-13T11:34:22.537Z,8.60
2023-01-13T11:36:56.519Z,8.70
2023-01-13T11:39:59.633Z,8.90
2023-01-13T11:42:38.385Z,9.00
2023-01-13T11:45:56.230Z,9.00
2023-01-13T11:48:30.265Z,9.00
2023-01-13T11:51:10.993Z,9.20
2023-01-13T11:54:10.372Z,9.20
2023-01-13T11:57:00.141Z,9.30
2023-01-13T12:00:20.085Z,9.20
2023-01-13T12:03:17.138Z,9.30
2023-01-13T12:06:04.862Z,9.40
2023-01-13T12:09:20.915Z,9.50
2023-01-13T12:12:23.427Z,9.50
2023-01-13T12:15:09.791Z,9.50
2023-01-13T12:17:48.711Z,9.50
2023-01-13T12:20:40.775Z,9.50
2023-01-13T12:23:35.821Z,9.40
2023-01-13T12:26:17.021Z,9.40
2023-01-13T12:28:56.549Z,9.50
2023-01-13T12:31:32.463Z,9.60
2023-01-13T12:34:29.400Z,9.60
2023-01-13T12:37:23.365Z,9.70
2023-01-13T12:40:22.557Z,9.70
2023-01-13T12:43:43.794Z,9.80
2023-01-13T12:46:22.168Z,9.80
2023-01-13T12:49:04.125Z,9.80
2023-01-13T12:51:57.122Z,9.80
2023-01-13T12:54:33.006Z,9.80
2023-01-13T12:57:03.980Z,9.90
2023-01-13T12:59:35.149Z,10.00
2023-01-13T13:02:17.236Z,10.00
2023-01-13T13:05:01.016Z,9.90
2023-01-13T13:07:52.775Z,9.90
2023-01-13T13:10:30.721Z,9.80
2023-01-13T13:13:20.015Z,9.90
2023-01-13T13:16:34.635Z,10.00
2023-01-13T13:19:28.071Z,10.20
2023-01-13T13:22:54.817Z,10.20
2023-01-13T13:25:28.697Z,10.30
2023-01-13T13:28:26.949Z,10.20
2023-01-13T13:35:06.508Z,10.20
2023-01-13T13:38:15.281Z,10.20
2023-01-13T13:41:14.220Z,10.10
2023-01-13T13:44:13.327Z,10.20
2023-01-13T13:46:48.971Z,10.20
2023-01-13T13:49:21.535Z,10.20
2023-01-13T13:52:01.010Z,10.20
2023-01-13T13:54:32.872Z,10.20
2023-01-13T13:57:02.821Z,10.10
2023-01-13T13:59:34.049Z,10.20
2023-01-13T14:02:18.883Z,10.20
2023-01-13T14:04:48.748Z,10.20
2023-01-13T14:07:22.855Z,10.20
2023-01-13T14:09:54.827Z,10.20
2023-01-13T14:12:26.655Z,10.20
2023-01-13T14:14:57.525Z,10.20
2023-01-13T14:17:30.451Z,10.20
2023-01-13T14:20:14.366Z,10.30
2023-01-13T14:22:54.556Z,10.40
2023-01-13T14:25:33.353Z,10.40
2023-01-13T14:28:15.226Z,10.50
2023-01-13T14:30:45.220Z,10.60
2023-01-13T14:33:23.132Z,10.80
2023-01-13T14:36:24.054Z,11.00
2023-01-13T14:39:06.228Z,11.00
2023-01-13T14:41:48.242Z,11.20
2023-01-13T14:44:30.847Z,11.20
2023-01-13T14:47:37.058Z,11.20
2023-01-13T14:50:22.982Z,11.10
2023-01-13T14:52:55.934Z,10.90
2023-01-13T14:55:41.891Z,10.70
2023-01-13T14:58:24.135Z,10.50
2023-01-13T15:00:54.575Z,10.20
2023-01-13T15:03:24.469Z,10.00
2023-01-13T15:05:54.502Z,9.80
2023-01-13T15:08:27.753Z,9.70
2023-01-13T15:11:05.323Z,9.50
2023-01-13T15:13:49.439Z,9.40
2023-01-13T15:16:25.856Z,9.30
2023-01-13T15:18:56.614Z,9.20
2023-01-13T15:21:26.173Z,9.10
2023-01-13T15:23:56.085Z,9.00
2023-01-13T15:26:29.140Z,8.90
2023-01-13T15:29:00.240Z,8.80
2023-01-13T15:31:30.978Z,8.70
2023-01-13T15:34:00.983Z,8.60
2023-01-13T15:36:53.064Z,8.50
2023-01-13T15:39:26.729Z,8.40
2023-01-13T15:42:16.706Z,8.40
2023-01-13T15:45:07.909Z,8.30
2023-01-13T15:47:37.822Z,8.20
2023-01-13T15:50:08.077Z,8.00
2023-01-13T15:52:37.531Z,8.00
2023-01-13T15:55:07.460Z,7.80
2023-01-13T15:57:39.994Z,7.70
2023-01-13T16:00:21.417Z,7.70
2023-01-13T16:02:52.193Z,7.60
2023-01-13T16:05:32.163Z,7.50
2023-01-13T16:08:03.110Z,7.40
2023-01-13T16:10:34.397Z,7.40
2023-01-13T16:13:06.498Z,7.30
2023-01-13T16:15:36.380Z,7.20
2023-01-13T16:18:06.036Z,7.20
2023-01-13T16:20:39.273Z,7.10
2023-01-13T16:23:08.862Z,7.00
2023-01-13T16:25:46.551Z,6.90
2023-01-13T16:28:25.379Z,6.90
2023-01-13T16:30:58.787Z,6.90
2023-01-13T16:33:28.775Z,6.90
2023-01-13T16:36:10.734Z,6.80
2023-01-13T16:38:45.563Z,6.70
2023-01-13T16:41:16.624Z,6.70
2023-01-13T16:43:47.913Z,6.70
2023-01-13T16:46:28.520Z,6.60
2023-01-13T16:49:04.638Z,6.60
2023-01-13T16:51:34.439Z,6.50
2023-01-13T16:54:05.638Z,6.40
2023-01-13T16:56:38.272Z,6.40
2023-01-13T16:59:17.892Z,6.30
2023-01-13T17:01:47.527Z,6.30
2023-01-13T17:04:19.460Z,6.30
2023-01-13T17:06:58.667Z,6.30
2023-01-13T17:09:30.379Z,6.30
2023-01-13T17:11:59.348Z,6.30
2023-01-13T17:14:29.317Z,6.20
2023-01-13T17:16:58.959Z,6.20
2023-01-13T17:19:31.901Z,6.10
2023-01-13T17:22:08.759Z,6.00
2023-01-13T17:24:42.155Z,6.10
2023-01-13T17:27:12.977Z,6.10
2023-01-13T17:29:43.288Z,6.10
2023-01-13T17:32:37.970Z,6.10
2023-01-13T17:35:09.837Z,6.00
2023-01-13T17:37:40.586Z,5.90
2023-01-13T17:40:13.541Z,6.00
2023-01-13T17:42:48.197Z,6.10
2023-01-13T18:11:39.930Z,5.80
2023-01-13T18:15:43.822Z,5.80
2023-01-13T18:23:30.039Z,5.80
2023-01-13T18:27:04.037Z,5.70
2023-01-13T18:30:58.400Z,5.70
2023-01-13T19:01:06.430Z,5.40
2023-01-13T19:03:33.892Z,5.20
2023-01-13T19:06:04.484Z,5.20
2023-01-13T19:08:33.629Z,5.20
2023-01-13T19:11:07.268Z,5.10
2023-01-13T19:13:37.601Z,5.10
2023-01-13T19:16:08.265Z,5.10
2023-01-13T19:18:36.726Z,5.10
2023-01-13T19:21:05.606Z,5.00
2023-01-13T19:23:33.615Z,5.00
2023-01-13T19:26:03.240Z,5.00
2023-01-13T19:28:30.638Z,5.00
2023-01-13T19:31:05.402Z,4.90
2023-01-13T19:33:36.690Z,4.80
2023-01-13T19:36:04.765Z,4.70
2023-01-13T19:38:32.427Z,4.70
2023-01-13T19:41:02.418Z,4.70
2023-01-13T19:43:49.675Z,4.80
2023-01-13T19:46:18.102Z,4.80
2023-01-13T19:48:45.510Z,4.70
2023-01-13T19:51:14.457Z,4.70
2023-01-13T19:53:42.256Z,4.70
2023-01-13T19:56:14.460Z,4.70
2023-01-13T19:58:42.121Z,4.70
2023-01-13T20:01:10.265Z,4.70
2023-01-13T20:03:38.115Z,4.60
2023-01-13T20:06:10.897Z,4.70
2023-01-13T20:08:38.564Z,4.60
2023-01-13T20:11:27.747Z,4.70
2023-01-13T20:13:56.524Z,4.80
2023-01-13T20:16:24.330Z,4.70
2023-01-13T20:18:52.110Z,4.70
2023-01-13T20:21:19.514Z,4.80
2023-01-13T20:23:51.262Z,4.70
2023-01-13T20:26:19.524Z,4.70
2023-01-13T20:28:47.351Z,4.70
2023-01-13T20:31:15.345Z,4.60
2023-01-13T20:33:43.077Z,4.60
2023-01-13T20:36:25.614Z,4.60
2023-01-13T20:38:58.066Z,4.50
2023-01-13T20:41:44.799Z,4.40
2023-01-13T20:44:12.694Z,4.40
2023-01-13T20:46:41.441Z,4.30
2023-01-13T20:49:11.408Z,4.30
2023-01-13T21:34:32.039Z,3.80
2023-01-13T21:43:09.409Z,3.80
2023-01-13T21:50:27.879Z,3.90
2023-01-13T23:04:07.384Z,3.20
2023-01-13T23:44:48.431Z,2.60
2023-01-13T23:47:27.957Z,2.60
2023-01-13T23:50:17.136Z,2.70
2023-01-13T23:57:54.248Z,2.60
